EST,Max TemperatureF,Mean TemperatureF,Min TemperatureF,Max Dew PointF,MeanDew PointF,Min DewpointF,Max Humidity, Mean Humidity, Min Humidity, Max Sea Level PressureIn, Mean Sea Level PressureIn, Min Sea Level PressureIn, Max VisibilityMiles, Mean VisibilityMiles, Min VisibilityMiles, Max Wind SpeedMPH, Mean Wind SpeedMPH, Max Gust SpeedMPH,PrecipitationIn, CloudCover, Events, WindDirDegrees
2013-2-1,72,59,45,40,34,29,71,45,23,30.33,30.27,30.23,10,10,10,17,9,25,0.00,0,,37
2013-2-2,76,61,46,50,42,34,76,53,31,30.29,30.22,30.14,10,10,10,13,6,17,0.00,0,,38
2013-2-3,74,62,50,55,42,27,84,54,17,30.23,30.15,30.10,10,10,10,16,7,23,0.00,0,,343
2013-2-4,73,59,45,52,41,22,96,58,16,30.17,30.10,30.05,10,10,8,10,4,17,0.00,0,,340
2013-2-5,79,65,50,59,50,42,73,59,39,30.10,30.05,30.01,10,10,10,10,3,14,0.00,2,,167
2013-2-6,82,70,58,66,58,53,90,67,45,30.13,30.07,30.03,10,10,10,13,3,16,T,2,,167
2013-2-7,82,72,61,65,62,58,100,74,45,30.08,30.02,29.95,10,10,6,16,7,22,0.00,1,,184
2013-2-8,84,73,62,69,62,49,93,74,31,30.08,30.00,29.92,10,10,8,16,8,23,0.01,2,,294
2013-2-9,81,69,56,60,57,55,100,75,42,30.18,30.12,30.06,10,8,1,17,8,21,0.00,3,,56
2013-2-10,84,73,62,61,59,54,90,68,37,30.24,30.18,30.14,10,10,10,17,9,23,0.00,2,,104
2013-2-11,83,72,61,65,62,59,97,74,47,30.21,30.15,30.09,10,10,10,15,7,20,0.00,1,,164
2013-2-12,82,74,65,69,66,63,100,81,62,30.12,30.05,29.98,10,10,8,18,8,24,0.00,0,,180
2013-2-13,83,75,66,72,69,57,100,83,63,30.00,29.96,29.91,10,9,7,20,10,25,T,4,Rain,198
2013-2-14,73,67,60,68,62,55,100,91,84,30.04,29.97,29.90,10,6,1,23,8,43,1.76,8,Rain,49
2013-2-15,69,65,60,61,60,57,97,87,76,30.07,30.01,29.96,10,10,8,9,2,10,0.06,7,,40
2013-2-16,69,63,56,61,51,39,87,68,47,30.12,30.00,29.94,10,10,10,25,12,33,0.01,5,Rain,335
2013-2-17,60,52,43,39,24,17,55,36,21,30.34,30.26,30.12,10,10,10,24,10,30,0.00,1,,27
2013-2-18,72,55,38,48,38,26,77,51,35,30.34,30.28,30.22,10,10,10,18,8,24,0.00,1,,84
2013-2-19,79,66,52,62,56,48,93,74,52,30.22,30.16,30.11,10,10,10,14,5,18,0.00,2,,153
2013-2-20,83,70,56,63,58,51,100,78,36,30.12,30.08,30.01,10,7,0,13,4,17,0.00,1,Fog,357
2013-2-21,83,72,61,65,62,59,100,82,51,30.10,30.05,30.01,10,8,0,12,5,17,0.00,2,Fog,119
2013-2-22,86,74,62,68,65,62,100,80,51,30.10,30.05,30.00,10,9,2,15,5,21,0.00,1,,165
2013-2-23,84,77,69,72,70,67,100,86,61,30.03,29.97,29.92,10,8,2,21,8,26,0.00,4,,183
2013-2-24,85,77,69,72,69,66,100,88,55,30.00,29.95,29.92,10,5,0,14,5,18,0.00,5,Fog,201
2013-2-25,84,75,65,70,68,65,100,83,63,29.93,29.87,29.81,10,7,0,15,6,22,0.00,2,Fog,159
2013-2-26,84,76,68,72,70,63,93,83,69,29.91,29.83,29.76,10,10,3,24,10,35,0.01,6,Rain,218
2013-2-27,77,71,64,65,61,58,93,77,57,29.99,29.94,29.88,10,9,6,13,5,14,0.01,5,,289
2013-2-28,74,67,60,57,54,51,84,67,46,30.04,29.98,29.94,10,10,10,16,7,21,0.00,3,,339